• Join FlightAware (Why Join?)
  • Login
  • US Flag 
07:16PM EDT


 

Airport Tracker/Info


-or-


 

Live Flight TrackerFlight Track Log ✈ UAL6044 ✈ 21-Mar-2014 ✈ KORD - KTYS

Flight Track Log - Related Links

Times and Time Zones

All times are in EDT time to prevent confusion due to time zone crossing. See the UAL6044 flight status page for this flight to view local times or setup timezone preferences in your user account.

Time Position Orientation Groundspeed Altitude Reporting Facility
EDT Latitude Longitude Course Direction KTS MPH feet Rate Location/Type
10:12AM 41.9167 -87.9000 153° Southeast 165 190 2,900  Level Chicago TRACON
10:13AM 41.8667 -87.8667 154° Southeast 207 238 4,500 1,500 Climbing Chicago TRACON
10:14AM 41.8178 -87.8697 183° South 236 272 5,600 1,860 Climbing Chicago Center
10:15AM 41.7425 -87.8317 159° South 282 325 7,900 2,100 Climbing Chicago Center
10:16AM 41.6750 -87.7772 149° Southeast 283 326 10,000 1,920 Climbing Chicago Center
10:17AM 41.6042 -87.7183 148° Southeast 291 335 11,900 1,740 Climbing Chicago Center
10:18AM 41.4620 -87.5913 153° Southeast  Level FlightAware Approximate
10:18AM 41.5231 -87.6519 148° Southeast 312 359 13,600  Level Chicago Center
10:19AM 41.4406 -87.5844 148° Southeast 345 397 14,200 660 Climbing Chicago Center
10:20AM 41.3383 -87.5569 169° South 373 429 15,000 900 Climbing Chicago Center
10:21AM 41.2236 -87.5369 173° South 382 440 16,100 1,200 Climbing Chicago Center
10:22AM 41.1139 -87.5094 169° South 397 457 17,500 1,500 Climbing Chicago Center
10:23AM 41.0108 -87.4828 169° South 394 453 19,200 1,200 Climbing Chicago Center
10:25AM 40.9044 -87.4533 168° South 391 450 20,000 780 Climbing Chicago Center
10:26AM 40.7797 -87.4167 167° South 409 471 20,900 900 Climbing Chicago Center
10:27AM 40.6642 -87.3431 154° Southeast 440 506 21,900 960 Climbing Chicago Center
10:28AM 40.5547 -87.2706 153° Southeast 440 506 22,900 960 Climbing Chicago Center
10:29AM 40.4433 -87.1983 154° Southeast 443 510 23,900 960 Climbing Chicago Center
10:30AM 40.3342 -87.1264 153° Southeast 443 510 24,900 1,020 Climbing Chicago Center
10:31AM 40.2011 -87.0400 154° Southeast 444 511 26,100 960 Climbing Chicago Center
10:32AM 40.0917 -86.9697 154° Southeast 443 510 27,000 840 Climbing Chicago Center
10:32AM 40.0264 -86.9272 153° Southeast 442 509 27,600 900 Climbing Indianapolis Center
10:33AM 39.9192 -86.8494 151° Southeast 442 509 28,600 1,140 Climbing Indianapolis Center
10:34AM 39.8161 -86.7625 147° Southeast 443 510 30,000 1,620 Climbing Indianapolis Center
10:36AM 39.7044 -86.6522 143° Southeast 439 505 32,000 1,440 Climbing Indianapolis Center
10:37AM 39.6425 -86.5167 121° Southeast 444 511 33,000 960 Climbing Indianapolis Center
10:38AM 39.5828 -86.3778 119° Southeast 446 513 34,000 840 Climbing Indianapolis Center
10:39AM 39.5222 -86.2406 120° Southeast 446 513 34,800 480 Climbing Indianapolis Center
10:40AM 39.4028 -86.1417 147° Southeast 428 493 35,000 60 Climbing Indianapolis Center
10:41AM 39.2917 -86.0708 154° Southeast 438 504 35,000  Level Indianapolis Center
10:42AM 39.1739 -85.9967 154° Southeast 461 531 35,000  Level Indianapolis Center
10:43AM 39.0514 -85.9214 154° Southeast 481 554 35,000  Level Indianapolis Center
10:44AM 38.9247 -85.8419 154° Southeast 499 574 35,000  Level Indianapolis Center
10:45AM 38.7967 -85.7611 154° Southeast 508 585 35,000  Level Indianapolis Center
10:46AM 38.6433 -85.6672 154° Southeast 509 586 35,000  Level Indianapolis Center
10:47AM 38.5147 -85.5881 154° Southeast 509 586 35,000  Level Indianapolis Center
10:48AM 38.3833 -85.5086 155° Southeast 513 590 35,000  Level Indianapolis Center
10:49AM 38.2536 -85.4292 154° Southeast 513 590 35,000 -120 Level Indianapolis Center
10:50AM 38.1242 -85.3506 154° Southeast 513 590 34,800 -780 Descending Indianapolis Center
10:51AM 37.9950 -85.2731 155° Southeast 513 590 33,500 -1,440 Descending Indianapolis Center
10:52AM 37.8553 -85.1853 154° Southeast 507 583 31,900 -1,260 Descending Indianapolis Center
10:53AM 37.7286 -85.1097 155° Southeast 506 582 31,000 -480 Descending Indianapolis Center
10:54AM 37.6025 -85.0356 155° Southeast 505 581 31,000 -180 Level Indianapolis Center
10:55AM 37.4769 -84.9594 154° Southeast 503 579 30,700 -780 Descending Indianapolis Center
10:56AM 37.3278 -84.8722 155° Southeast 503 579 29,400 -1,500 Descending Indianapolis Center
10:57AM 37.2028 -84.7978 155° Southeast 502 578 27,600 -1,740 Descending Indianapolis Center
10:58AM 37.0761 -84.7236 155° Southeast 500 575 25,900 -1,860 Descending Indianapolis Center
10:59AM 36.9400 -84.6444 155° Southeast 508 585 23,800 -2,160 Descending Indianapolis Center
11:00AM 36.8178 -84.5728 155° Southeast 492 566 21,500 -2,400 Descending Indianapolis Center
11:01AM 36.6903 -84.4983 155° Southeast 466 536 18,900 -2,340 Descending Indianapolis Center
11:02AM 36.5850 -84.4369 155° Southeast 434 499 16,700 -2,160 Descending Indianapolis Center
11:03AM 36.4878 -84.3819 156° South 425 489 14,500 -2,340 Descending Indianapolis Center
11:04AM 36.3692 -84.3125 155° Southeast 401 461 11,900 -1,740 Descending Indianapolis Center
11:06AM 36.2725 -84.2567 155° Southeast 389 448 11,000 -480 Descending Indianapolis Center
11:07AM 36.1761 -84.1994 154° Southeast 387 445 11,000 -360 Level Indianapolis Center
11:07AM 36.1042 -84.1286 141° Southeast 365 420 10,300 -1,020 Descending Atlanta Center
11:08AM 36.0500 -84.0644 136° Southeast 342 394 9,100 -1,740 Descending Atlanta Center
11:09AM 36.0103 -83.9875 123° Southeast 292 336 6,900 -1,800 Descending Atlanta Center
11:10AM 35.9789 -83.9181 119° Southeast 260 299 5,500 -1,380 Descending Atlanta Center
11:11AM 35.9267 -83.8953 161° South 197 227 4,200 -1,380 Descending Atlanta Center
11:12AM 35.8789 -83.9106 195° South 178 205 2,800 -1,140 Descending Atlanta Center
11:13AM 35.8517 -83.9414 223° Southwest 146 168 2,000 -780 Descending Atlanta Center
11:14AM 35.8267 -83.9747 227° Southwest 139 160 1,300 -720 Descending Atlanta Center